createdAt,value
2018-12-10T00:02:08.044Z,100.00
2018-12-10T00:04:40.507Z,100.00
2018-12-10T00:07:10.137Z,100.00
2018-12-10T00:09:40.090Z,100.00
2018-12-10T00:12:09.837Z,100.00
2018-12-10T00:14:40.446Z,100.00
2018-12-10T00:17:10.087Z,100.00
2018-12-10T00:19:39.694Z,100.00
2018-12-10T00:22:09.444Z,100.00
2018-12-10T00:24:39.276Z,100.00
2018-12-10T00:27:08.830Z,100.00
2018-12-10T00:29:38.767Z,100.00
2018-12-10T00:32:09.626Z,99.80
2018-12-10T00:34:39.395Z,99.67
2018-12-10T00:37:09.363Z,99.80
2018-12-10T00:39:39.310Z,100.00
2018-12-10T00:42:08.911Z,100.00
2018-12-10T00:44:39.100Z,100.00
2018-12-10T00:47:08.637Z,100.00
2018-12-10T00:49:38.337Z,100.00
2018-12-10T00:52:08.068Z,100.00
2018-12-10T00:54:38.114Z,100.00
2018-12-10T00:57:07.783Z,100.00
2018-12-10T00:59:37.309Z,100.00
2018-12-10T01:02:07.426Z,100.00
2018-12-10T01:04:37.172Z,100.00
2018-12-10T01:07:06.686Z,100.00
2018-12-10T01:09:37.022Z,99.50
2018-12-10T01:12:06.773Z,98.03
2018-12-10T01:14:36.679Z,98.07
2018-12-10T01:17:06.506Z,97.91
2018-12-10T01:19:36.230Z,98.14
2018-12-10T01:22:06.297Z,97.90
2018-12-10T01:24:36.090Z,97.82
2018-12-10T01:27:05.683Z,97.94
2018-12-10T01:29:35.546Z,98.52
2018-12-10T01:32:05.489Z,99.09
2018-12-10T01:34:35.193Z,99.21
2018-12-10T01:37:04.952Z,99.72
2018-12-10T01:39:34.950Z,100.00
2018-12-10T01:42:04.915Z,100.00
2018-12-10T01:44:35.779Z,100.00
2018-12-10T01:47:05.602Z,100.00
2018-12-10T01:49:35.948Z,100.00
2018-12-10T01:52:05.593Z,100.00
2018-12-10T01:54:35.587Z,100.00
2018-12-10T01:57:05.300Z,100.00
2018-12-10T01:59:34.947Z,100.00
2018-12-10T02:02:04.862Z,100.00
2018-12-10T02:04:34.690Z,100.00
2018-12-10T02:07:04.337Z,100.00
2018-12-10T02:09:34.380Z,100.00
2018-12-10T02:12:04.474Z,100.00
2018-12-10T02:14:34.182Z,100.00
2018-12-10T02:17:04.227Z,100.00
2018-12-10T02:19:34.175Z,100.00
2018-12-10T02:22:04.020Z,100.00
2018-12-10T02:24:33.661Z,100.00
2018-12-10T02:27:03.753Z,100.00
2018-12-10T02:29:33.673Z,100.00
2018-12-10T02:32:03.731Z,100.00
2018-12-10T02:34:33.599Z,100.00
2018-12-10T02:37:03.171Z,100.00
2018-12-10T02:39:32.860Z,100.00
2018-12-10T02:42:02.666Z,100.00
2018-12-10T02:44:32.425Z,100.00
2018-12-10T02:47:02.091Z,100.00
2018-12-10T02:49:32.415Z,100.00
2018-12-10T02:52:02.021Z,100.00
2018-12-10T02:54:32.091Z,100.00
2018-12-10T02:57:01.691Z,100.00
2018-12-10T02:59:31.447Z,100.00
2018-12-10T03:02:01.130Z,100.00
2018-12-10T03:04:31.000Z,100.00
2018-12-10T03:07:00.787Z,100.00
2018-12-10T03:09:30.462Z,100.00
2018-12-10T03:12:00.216Z,100.00
2018-12-10T03:14:30.125Z,100.00
2018-12-10T03:16:59.782Z,100.00
2018-12-10T03:19:29.366Z,100.00
2018-12-10T03:21:59.006Z,100.00
2018-12-10T03:24:28.927Z,100.00
2018-12-10T03:26:58.734Z,100.00
2018-12-10T03:29:28.554Z,100.00
2018-12-10T03:31:58.162Z,100.00
2018-12-10T03:34:28.046Z,100.00
2018-12-10T03:36:57.521Z,100.00
2018-12-10T03:39:27.336Z,100.00
2018-12-10T03:41:57.689Z,100.00
2018-12-10T03:44:27.431Z,100.00
2018-12-10T03:46:57.097Z,100.00
2018-12-10T03:49:27.163Z,100.00
2018-12-10T03:51:56.821Z,100.00
2018-12-10T03:54:26.478Z,100.00
2018-12-10T03:56:56.559Z,100.00
2018-12-10T03:59:26.300Z,100.00
2018-12-10T04:01:56.216Z,100.00
2018-12-10T04:04:26.034Z,100.00
2018-12-10T04:06:55.635Z,100.00
2018-12-10T04:09:25.632Z,100.00
2018-12-10T04:11:55.320Z,100.00
2018-12-10T04:14:25.006Z,100.00
2018-12-10T04:16:54.694Z,100.00
2018-12-10T04:19:24.879Z,100.00
2018-12-10T04:21:57.332Z,100.00
2018-12-10T04:24:27.084Z,100.00
2018-12-10T04:26:56.799Z,100.00
2018-12-10T04:29:26.413Z,100.00
2018-12-10T04:31:56.163Z,100.00
2018-12-10T04:34:26.035Z,100.00
2018-12-10T04:36:55.989Z,100.00
2018-12-10T04:39:25.709Z,100.00
2018-12-10T04:41:55.372Z,100.00
2018-12-10T04:44:24.896Z,100.00
2018-12-10T04:46:54.576Z,100.00
2018-12-10T04:49:24.354Z,100.00
2018-12-10T04:51:54.299Z,100.00
2018-12-10T04:54:23.793Z,100.00
2018-12-10T04:56:53.638Z,100.00
2018-12-10T04:59:23.476Z,100.00
2018-12-10T05:01:53.443Z,100.00
2018-12-10T05:04:23.147Z,100.00
2018-12-10T05:06:53.110Z,100.00
2018-12-10T05:09:22.793Z,100.00
2018-12-10T05:11:52.381Z,100.00
2018-12-10T05:14:22.191Z,100.00
2018-12-10T05:16:51.941Z,100.00
2018-12-10T05:19:21.521Z,100.00
2018-12-10T05:21:51.173Z,100.00
2018-12-10T05:24:20.732Z,100.00
2018-12-10T05:26:50.407Z,100.00
2018-12-10T05:29:20.116Z,100.00
2018-12-10T05:31:49.782Z,100.00
2018-12-10T05:34:19.477Z,100.00
2018-12-10T05:36:49.216Z,100.00
2018-12-10T05:39:19.043Z,100.00
2018-12-10T05:41:48.763Z,100.00
2018-12-10T05:44:18.379Z,100.00
2018-12-10T05:46:48.038Z,100.00
2018-12-10T05:49:17.558Z,100.00
2018-12-10T05:51:48.034Z,100.00
2018-12-10T05:54:17.591Z,100.00
2018-12-10T05:56:46.966Z,100.00
2018-12-10T05:59:16.449Z,100.00
2018-12-10T06:01:46.042Z,100.00
2018-12-10T06:04:15.607Z,100.00
2018-12-10T06:06:45.082Z,100.00
2018-12-10T06:09:14.568Z,100.00
2018-12-10T06:11:44.003Z,100.00
2018-12-10T06:14:13.624Z,100.00
2018-12-10T06:16:43.239Z,100.00
2018-12-10T06:19:13.066Z,100.00
2018-12-10T06:21:42.689Z,100.00
2018-12-10T06:24:12.253Z,100.00
2018-12-10T06:26:42.142Z,100.00
2018-12-10T06:29:11.958Z,100.00
2018-12-10T06:31:41.509Z,100.00
2018-12-10T06:34:10.960Z,100.00
2018-12-10T06:36:44.629Z,100.00
2018-12-10T06:39:14.162Z,100.00
2018-12-10T06:41:43.814Z,100.00
2018-12-10T06:44:13.307Z,100.00
2018-12-10T06:46:42.853Z,100.00
2018-12-10T06:49:12.399Z,100.00
2018-12-10T06:51:42.161Z,100.00
2018-12-10T06:54:12.060Z,100.00
2018-12-10T06:56:41.544Z,100.00
2018-12-10T06:59:10.987Z,100.00
2018-12-10T07:01:42.736Z,100.00
2018-12-10T07:04:12.311Z,100.00
2018-12-10T07:06:41.837Z,100.00
2018-12-10T07:09:11.626Z,100.00
2018-12-10T07:11:41.366Z,100.00
2018-12-10T07:14:10.826Z,100.00
2018-12-10T07:16:40.391Z,100.00
2018-12-10T07:19:09.954Z,100.00
2018-12-10T07:21:39.575Z,100.00
2018-12-10T07:24:09.139Z,100.00
2018-12-10T07:26:38.572Z,100.00
2018-12-10T07:29:08.103Z,100.00
2018-12-10T07:31:37.570Z,99.56
2018-12-10T07:34:06.986Z,99.65
2018-12-10T07:36:36.581Z,99.91
2018-12-10T07:39:07.847Z,98.80
2018-12-10T07:41:37.329Z,97.64
2018-12-10T07:44:07.042Z,96.87
2018-12-10T07:46:36.581Z,96.56
2018-12-10T07:49:06.015Z,95.60
2018-12-10T07:51:35.515Z,96.10
2018-12-10T07:54:05.228Z,95.18
2018-12-10T07:56:35.003Z,94.43
2018-12-10T07:59:04.680Z,94.05
2018-12-10T08:01:34.333Z,94.55
2018-12-10T08:04:04.110Z,94.06
2018-12-10T08:06:34.033Z,93.58
2018-12-10T08:09:04.762Z,94.33
2018-12-10T08:11:34.223Z,93.38
2018-12-10T08:14:03.798Z,92.46
2018-12-10T08:16:33.377Z,91.19
2018-12-10T08:19:03.154Z,90.89
2018-12-10T08:21:33.046Z,89.22
2018-12-10T08:24:02.780Z,86.84
2018-12-10T08:26:32.441Z,85.61
2018-12-10T08:31:27.955Z,84.71
2018-12-10T08:31:34.008Z,84.11
2018-12-10T08:34:03.562Z,83.56
2018-12-10T08:36:33.117Z,82.67
2018-12-10T08:39:04.509Z,82.83
2018-12-10T08:41:34.462Z,81.63
2018-12-10T08:44:04.311Z,81.75
2018-12-10T08:46:34.015Z,81.71
2018-12-10T08:49:04.006Z,82.21
2018-12-10T08:51:34.432Z,80.77
2018-12-10T08:54:04.213Z,80.45
2018-12-10T08:56:34.443Z,79.21
2018-12-10T08:59:04.451Z,78.00
2018-12-10T09:01:34.322Z,78.14
2018-12-10T09:04:04.243Z,78.51
2018-12-10T09:06:33.946Z,78.27
2018-12-10T09:09:04.042Z,77.46
2018-12-10T09:11:33.741Z,77.05
2018-12-10T09:14:03.472Z,76.85
2018-12-10T09:16:33.176Z,76.26
2018-12-10T09:19:03.218Z,76.04
2018-12-10T09:21:32.799Z,75.84
2018-12-10T09:24:02.567Z,74.60
2018-12-10T09:26:34.054Z,74.31
2018-12-10T09:29:04.507Z,74.08
2018-12-10T09:31:34.163Z,76.86
2018-12-10T09:34:04.144Z,78.09
2018-12-10T09:36:33.921Z,78.15
2018-12-10T09:39:05.227Z,76.12
2018-12-10T09:41:34.983Z,73.66
2018-12-10T09:44:05.320Z,72.69
2018-12-10T09:46:35.200Z,71.67
2018-12-10T09:49:05.290Z,69.66
2018-12-10T09:51:35.043Z,68.77
2018-12-10T09:54:05.162Z,67.50
2018-12-10T09:56:34.745Z,66.95
2018-12-10T09:59:04.589Z,66.10
2018-12-10T10:01:34.572Z,64.34
2018-12-10T10:04:04.503Z,63.84
2018-12-10T10:06:34.549Z,63.63
2018-12-10T10:09:06.177Z,63.06
2018-12-10T10:11:36.196Z,64.44
2018-12-10T10:14:05.975Z,63.21
2018-12-10T10:16:35.696Z,63.31
2018-12-10T10:19:05.384Z,63.50
2018-12-10T10:21:35.537Z,63.34
2018-12-10T10:24:05.222Z,62.92
2018-12-10T10:26:35.174Z,63.17
2018-12-10T10:29:04.858Z,64.42
2018-12-10T10:31:35.298Z,65.08
2018-12-10T10:34:05.199Z,65.43
2018-12-10T10:36:35.123Z,65.84
2018-12-10T10:39:06.040Z,65.81
2018-12-10T10:41:35.556Z,65.85
2018-12-10T10:44:05.858Z,66.25
2018-12-10T10:46:35.626Z,67.36
2018-12-10T10:49:05.577Z,66.57
2018-12-10T10:51:35.150Z,66.64
2018-12-10T10:54:04.849Z,66.52
2018-12-10T10:56:34.633Z,66.60
2018-12-10T10:59:04.655Z,66.75
2018-12-10T11:01:39.528Z,66.43
2018-12-10T11:04:10.565Z,66.78
2018-12-10T11:06:41.017Z,66.78
2018-12-10T11:09:15.242Z,66.51
2018-12-10T11:11:42.745Z,66.25
2018-12-10T11:14:12.755Z,65.01
2018-12-10T11:16:43.153Z,64.30
2018-12-10T11:19:12.938Z,63.18
2018-12-10T11:21:42.473Z,62.27
2018-12-10T11:24:12.359Z,62.03
2018-12-10T11:26:42.311Z,60.93
2018-12-10T11:29:11.898Z,62.00
2018-12-10T11:31:41.851Z,61.37
2018-12-10T11:34:11.705Z,60.60
2018-12-10T11:36:41.526Z,61.03
2018-12-10T11:39:11.267Z,60.86
2018-12-10T11:41:41.242Z,61.48
2018-12-10T11:44:11.713Z,62.19
2018-12-10T11:46:41.538Z,62.32
2018-12-10T11:49:11.764Z,61.84
2018-12-10T11:51:41.814Z,61.99
2018-12-10T11:54:11.625Z,62.16
2018-12-10T11:56:41.358Z,62.19
2018-12-10T11:59:11.243Z,61.76
2018-12-10T12:01:41.074Z,61.64
2018-12-10T12:04:10.796Z,59.87
2018-12-10T12:06:40.696Z,60.19
2018-12-10T12:09:11.215Z,60.28
2018-12-10T12:11:41.102Z,59.11
2018-12-10T12:14:11.035Z,58.71
2018-12-10T12:16:41.006Z,59.41
2018-12-10T12:19:11.496Z,59.65
2018-12-10T12:21:41.846Z,58.22
2018-12-10T12:24:11.440Z,58.76
2018-12-10T12:26:41.837Z,59.54
2018-12-10T12:29:11.670Z,59.56
2018-12-10T12:31:41.677Z,59.75
2018-12-10T12:34:11.605Z,58.99
2018-12-10T12:36:41.652Z,58.86
2018-12-10T12:39:11.417Z,58.41
2018-12-10T12:41:41.225Z,58.87
2018-12-10T12:44:11.891Z,58.54
2018-12-10T12:46:41.877Z,58.80
2018-12-10T12:49:11.579Z,59.66
2018-12-10T12:51:41.302Z,59.85
2018-12-10T12:54:11.168Z,60.39
2018-12-10T12:56:41.092Z,61.05
2018-12-10T12:59:11.343Z,61.57
2018-12-10T13:01:48.951Z,62.42
2018-12-10T13:04:12.731Z,63.66
2018-12-10T13:06:42.846Z,63.77
2018-12-10T13:09:21.462Z,64.50
2018-12-10T13:11:45.046Z,64.50
2018-12-10T13:14:15.248Z,64.92
2018-12-10T13:16:49.393Z,65.68
2018-12-10T13:19:17.358Z,65.74
2018-12-10T13:21:47.016Z,66.40
2018-12-10T13:24:17.381Z,66.34
2018-12-10T13:26:47.132Z,66.91
2018-12-10T13:29:17.199Z,67.17
2018-12-10T13:31:46.874Z,67.14
2018-12-10T13:34:17.006Z,67.28
2018-12-10T13:36:46.586Z,67.58
2018-12-10T13:39:16.155Z,67.97
2018-12-10T13:41:46.146Z,67.98
2018-12-10T13:44:15.998Z,68.66
2018-12-10T13:46:45.681Z,68.87
2018-12-10T13:49:15.378Z,69.67
2018-12-10T13:51:45.343Z,70.00
2018-12-10T13:54:14.994Z,70.82
2018-12-10T13:56:44.678Z,71.09
2018-12-10T13:59:14.766Z,71.72
2018-12-10T14:01:44.546Z,72.36
2018-12-10T14:04:18.571Z,71.96
2018-12-10T14:06:48.635Z,72.41
2018-12-10T14:09:18.272Z,72.53
2018-12-10T14:11:48.231Z,72.55
2018-12-10T14:14:17.965Z,73.52
2018-12-10T14:16:47.906Z,73.93
2018-12-10T14:19:17.902Z,73.77
2018-12-10T14:21:47.526Z,74.50
2018-12-10T14:24:17.450Z,75.15
2018-12-10T14:26:47.302Z,75.72
2018-12-10T14:29:17.240Z,76.02
2018-12-10T14:31:47.316Z,76.04
2018-12-10T14:34:22.087Z,76.30
2018-12-10T14:36:51.947Z,76.12
2018-12-10T14:39:21.972Z,75.54
2018-12-10T14:41:52.141Z,75.72
2018-12-10T14:44:21.850Z,75.99
2018-12-10T14:46:52.213Z,75.92
2018-12-10T14:49:22.111Z,76.00
2018-12-10T14:51:52.096Z,76.24
2018-12-10T14:54:21.949Z,75.55
2018-12-10T14:56:51.745Z,75.59
2018-12-10T14:59:22.738Z,74.14
2018-12-10T15:01:52.421Z,73.90
2018-12-10T15:04:21.982Z,74.33
2018-12-10T15:06:51.946Z,74.53
2018-12-10T15:09:21.555Z,75.00
2018-12-10T15:11:51.141Z,74.99
2018-12-10T15:14:20.878Z,75.61
2018-12-10T15:16:50.729Z,75.62
2018-12-10T15:19:20.752Z,75.55
2018-12-10T15:21:50.924Z,75.46
2018-12-10T15:24:20.717Z,74.88
2018-12-10T15:26:51.141Z,74.39
2018-12-10T15:29:20.856Z,74.25
2018-12-10T15:31:50.429Z,71.98
2018-12-10T15:34:20.923Z,70.87
2018-12-10T15:36:50.855Z,70.57
2018-12-10T15:39:20.641Z,69.11
2018-12-10T15:41:50.323Z,69.61
2018-12-10T15:44:20.291Z,69.04
2018-12-10T15:46:49.940Z,69.32
2018-12-10T15:49:19.741Z,68.99
2018-12-10T15:51:49.767Z,68.93
2018-12-10T15:54:19.687Z,68.37
2018-12-10T15:56:49.510Z,68.41
2018-12-10T15:59:19.645Z,68.42
2018-12-10T16:01:49.303Z,69.09
2018-12-10T16:04:19.403Z,68.60
2018-12-10T16:06:49.230Z,68.39
2018-12-10T16:09:19.459Z,67.77
2018-12-10T16:11:49.582Z,67.67
2018-12-10T16:14:19.574Z,67.41
2018-12-10T16:16:49.497Z,67.98
2018-12-10T16:19:19.294Z,68.26
2018-12-10T16:21:49.050Z,68.89
2018-12-10T16:24:18.966Z,69.14
2018-12-10T16:26:49.119Z,68.90
2018-12-10T16:29:18.746Z,69.03
2018-12-10T16:31:48.290Z,68.83
2018-12-10T16:34:19.056Z,69.46
2018-12-10T16:36:49.097Z,69.50
2018-12-10T16:39:18.795Z,69.18
2018-12-10T16:41:48.948Z,69.41
2018-12-10T16:44:18.420Z,69.86
2018-12-10T16:46:47.964Z,70.12
2018-12-10T16:49:17.816Z,70.59
2018-12-10T16:51:47.443Z,70.23
2018-12-10T16:54:16.916Z,69.76
2018-12-10T16:56:46.392Z,70.16
2018-12-10T16:59:16.789Z,69.50
2018-12-10T17:01:46.397Z,68.68
2018-12-10T17:04:16.083Z,69.27
2018-12-10T17:06:46.754Z,69.18
2018-12-10T17:09:16.648Z,68.72
2018-12-10T17:11:46.382Z,68.54
2018-12-10T17:14:16.715Z,68.09
2018-12-10T17:16:46.616Z,68.10
2018-12-10T17:19:16.160Z,68.33
2018-12-10T17:21:45.668Z,68.22
2018-12-10T17:24:15.171Z,68.67
2018-12-10T17:26:44.781Z,68.66
2018-12-10T17:29:14.942Z,68.57
2018-12-10T17:31:44.799Z,68.63
2018-12-10T17:34:14.262Z,68.67
2018-12-10T17:36:44.241Z,68.13
2018-12-10T17:39:13.701Z,67.77
2018-12-10T17:41:43.216Z,66.82
2018-12-10T17:44:12.885Z,65.81
2018-12-10T17:46:42.615Z,64.84
2018-12-10T17:49:12.118Z,63.73
2018-12-10T17:51:41.856Z,64.29
2018-12-10T17:54:11.355Z,64.81
2018-12-10T17:56:41.390Z,65.13
2018-12-10T17:59:10.978Z,65.50
2018-12-10T18:01:40.471Z,64.84
2018-12-10T18:04:09.920Z,63.31
2018-12-10T18:06:39.815Z,64.03
2018-12-10T18:09:09.562Z,65.32
2018-12-10T18:11:39.083Z,66.10
2018-12-10T18:14:08.667Z,66.25
2018-12-10T18:16:38.226Z,65.78
2018-12-10T18:19:07.820Z,66.39
2018-12-10T18:21:37.503Z,67.39
2018-12-10T18:24:08.029Z,65.13
2018-12-10T18:26:37.534Z,64.62
2018-12-10T18:29:07.238Z,64.90
2018-12-10T18:31:37.029Z,65.18
2018-12-10T18:34:07.264Z,65.58
2018-12-10T18:36:36.756Z,65.36
2018-12-10T18:39:08.370Z,65.73
2018-12-10T18:41:38.737Z,66.09
2018-12-10T18:44:08.243Z,65.84
2018-12-10T18:46:37.912Z,65.80
2018-12-10T18:49:07.387Z,66.18
2018-12-10T18:51:36.865Z,66.13
2018-12-10T18:54:07.112Z,65.58
2018-12-10T18:56:37.557Z,64.94
2018-12-10T18:59:07.265Z,65.21
2018-12-10T19:01:36.745Z,64.71
2018-12-10T19:04:06.702Z,65.07
2018-12-10T19:06:36.258Z,64.91
2018-12-10T19:09:07.703Z,64.73
2018-12-10T19:11:37.366Z,64.22
2018-12-10T19:14:07.485Z,64.20
2018-12-10T19:16:37.030Z,64.57
2018-12-10T19:19:06.590Z,64.63
2018-12-10T19:21:36.674Z,64.46
2018-12-10T19:24:06.363Z,64.24
2018-12-10T19:26:35.838Z,64.21
2018-12-10T19:29:05.396Z,64.09
2018-12-10T19:31:35.801Z,63.77
2018-12-10T19:34:05.467Z,63.65
2018-12-10T19:36:35.063Z,64.23
2018-12-10T19:39:06.646Z,63.96
2018-12-10T19:41:36.511Z,63.61
2018-12-10T19:44:05.991Z,63.39
2018-12-10T19:46:35.499Z,63.18
2018-12-10T19:49:05.000Z,62.58
2018-12-10T19:51:34.581Z,61.93
2018-12-10T19:54:04.161Z,61.65
2018-12-10T19:56:33.617Z,62.13
2018-12-10T19:59:04.162Z,61.94
2018-12-10T20:01:33.614Z,62.20
2018-12-10T20:04:03.162Z,61.81
2018-12-10T20:06:35.966Z,61.77
2018-12-10T20:09:08.309Z,61.32
2018-12-10T20:11:37.850Z,60.24
2018-12-10T20:14:07.392Z,60.69
2018-12-10T20:16:37.006Z,60.32
2018-12-10T20:19:06.821Z,60.29
2018-12-10T20:21:36.794Z,60.32
2018-12-10T20:24:36.788Z,59.95
2018-12-10T20:27:06.700Z,59.66
2018-12-10T20:29:36.220Z,60.80
2018-12-10T20:32:06.074Z,61.49
2018-12-10T20:34:36.684Z,62.24
2018-12-10T20:37:06.534Z,61.98
2018-12-10T20:39:36.285Z,61.54
2018-12-10T20:42:05.811Z,61.74
2018-12-10T20:44:35.281Z,62.31
2018-12-10T20:47:04.893Z,61.49
2018-12-10T20:49:34.378Z,61.58
2018-12-10T20:52:03.820Z,60.97
2018-12-10T20:54:33.273Z,59.63
2018-12-10T20:57:02.796Z,59.55
2018-12-10T20:59:32.233Z,59.04
2018-12-10T21:02:01.677Z,58.75
2018-12-10T21:04:31.100Z,58.56
2018-12-10T21:07:00.572Z,58.31
2018-12-10T21:09:30.054Z,58.73
2018-12-10T21:11:59.509Z,58.79
2018-12-10T21:14:29.001Z,58.46
2018-12-10T21:16:58.474Z,59.66
2018-12-10T21:19:28.029Z,59.92
2018-12-10T21:21:57.466Z,60.70
2018-12-10T21:24:26.991Z,60.48
2018-12-10T21:26:56.673Z,60.52
2018-12-10T21:29:26.197Z,60.33
2018-12-10T21:31:56.198Z,60.91
2018-12-10T21:34:25.682Z,60.84
2018-12-10T21:36:55.207Z,60.66
2018-12-10T21:39:24.691Z,60.70
2018-12-10T21:41:54.178Z,59.97
2018-12-10T21:44:23.637Z,59.83
2018-12-10T21:46:53.225Z,59.46
2018-12-10T21:49:22.700Z,60.01
2018-12-10T21:51:52.169Z,60.63
2018-12-10T21:54:21.886Z,60.57
2018-12-10T21:56:51.452Z,60.91
2018-12-10T21:59:20.898Z,61.13
2018-12-10T22:01:50.602Z,61.43
2018-12-10T22:04:20.348Z,61.24
2018-12-10T22:06:49.999Z,61.03
2018-12-10T22:09:19.396Z,61.81
2018-12-10T22:11:49.248Z,62.07
2018-12-10T22:14:18.709Z,62.30
2018-12-10T22:16:48.120Z,62.98
2018-12-10T22:19:17.533Z,62.95
2018-12-10T22:21:47.927Z,62.93
2018-12-10T22:24:17.349Z,63.49
2018-12-10T22:26:46.764Z,63.96
2018-12-10T22:29:16.205Z,64.56
2018-12-10T22:31:45.859Z,64.93
2018-12-10T22:34:16.421Z,65.36
2018-12-10T22:36:46.059Z,66.05
2018-12-10T22:39:15.856Z,65.96
2018-12-10T22:41:45.238Z,66.18
2018-12-10T22:44:14.719Z,66.76
2018-12-10T22:46:44.481Z,67.33
2018-12-10T22:49:13.884Z,68.21
2018-12-10T22:51:43.324Z,68.66
2018-12-10T22:54:13.303Z,68.88
2018-12-10T22:56:43.231Z,69.04
2018-12-10T22:59:12.674Z,69.31
2018-12-10T23:01:42.433Z,68.85
2018-12-10T23:04:12.092Z,68.54
2018-12-10T23:06:41.850Z,68.41
2018-12-10T23:09:11.527Z,67.47
2018-12-10T23:11:41.293Z,66.89
2018-12-10T23:14:11.132Z,67.27
2018-12-10T23:16:40.991Z,67.02
2018-12-10T23:19:10.463Z,67.05
2018-12-10T23:21:40.302Z,67.67
2018-12-10T23:24:09.976Z,67.86
2018-12-10T23:26:39.677Z,67.82
2018-12-10T23:29:09.293Z,68.17
2018-12-10T23:31:38.843Z,68.62
2018-12-10T23:34:08.984Z,68.16
2018-12-10T23:36:38.877Z,67.88
2018-12-10T23:39:08.438Z,67.53
2018-12-10T23:41:38.184Z,66.31
2018-12-10T23:44:08.010Z,65.67
2018-12-10T23:46:37.790Z,65.71
2018-12-10T23:49:07.750Z,65.84
2018-12-10T23:51:37.794Z,65.91
2018-12-10T23:54:07.442Z,64.77
2018-12-10T23:56:37.412Z,64.29
2018-12-10T23:59:07.070Z,64.33
